createdAt,value
2023-06-07T05:31:26.022Z,518.00
2023-06-07T05:32:26.858Z,508.00
2023-06-07T05:33:25.875Z,501.00
2023-06-07T05:34:26.825Z,497.00
2023-06-07T05:35:26.899Z,499.00
2023-06-07T05:36:26.825Z,532.00
2023-06-07T05:37:25.847Z,515.00
2023-06-07T05:38:25.799Z,508.00
2023-06-07T05:39:26.833Z,510.00
2023-06-07T05:40:25.801Z,521.00
2023-06-07T05:41:26.805Z,546.00
2023-06-07T05:42:26.785Z,545.00
2023-06-07T05:43:26.779Z,603.00
2023-06-07T05:44:25.775Z,600.00
2023-06-07T05:45:26.773Z,742.00
2023-06-07T05:46:26.814Z,702.00
2023-06-07T05:47:26.865Z,792.00
2023-06-07T05:48:25.742Z,857.00
2023-06-07T05:49:26.750Z,566.00
2023-06-07T05:50:26.725Z,764.00
2023-06-07T05:51:25.718Z,698.00
2023-06-07T05:52:26.737Z,593.00
2023-06-07T05:53:26.711Z,564.00
2023-06-07T05:54:25.707Z,589.00
2023-06-07T05:55:25.694Z,535.00
2023-06-07T05:56:26.730Z,570.00
2023-06-07T05:57:26.671Z,572.00
2023-06-07T05:58:26.686Z,614.00
2023-06-07T05:59:25.649Z,492.00
2023-06-07T06:00:26.642Z,533.00
2023-06-07T06:01:27.619Z,552.00
2023-06-07T06:02:26.815Z,629.00
2023-06-07T06:03:26.717Z,533.00
2023-06-07T06:04:26.632Z,497.00
2023-06-07T06:05:26.610Z,494.00
2023-06-07T06:06:26.617Z,573.00
2023-06-07T06:07:26.601Z,612.00
2023-06-07T06:08:26.648Z,598.00
2023-06-07T06:09:26.650Z,607.00
2023-06-07T06:10:26.860Z,607.00
2023-06-07T06:11:26.657Z,688.00
2023-06-07T06:12:26.738Z,666.00
2023-06-07T06:13:25.779Z,681.00
2023-06-07T06:14:26.827Z,632.00
2023-06-07T06:15:25.863Z,634.00
2023-06-07T06:16:26.928Z,789.00
2023-06-07T06:17:26.918Z,666.00
2023-06-07T06:18:25.929Z,611.00
2023-06-07T06:19:26.955Z,570.00
2023-06-07T06:20:25.944Z,734.00
2023-06-07T06:21:26.934Z,631.00
2023-06-07T06:22:26.925Z,708.00
2023-06-07T06:23:26.972Z,661.00
2023-06-07T06:24:25.938Z,688.00
2023-06-07T06:25:26.932Z,622.00
2023-06-07T06:26:26.062Z,676.00
2023-06-07T06:27:27.031Z,736.00
2023-06-07T06:28:26.991Z,809.00
2023-06-07T06:29:27.027Z,634.00
2023-06-07T06:30:27.037Z,579.00
2023-06-07T06:31:27.078Z,631.00
2023-06-07T06:32:26.175Z,552.00
2023-06-07T06:33:27.103Z,561.00
2023-06-07T06:34:27.182Z,537.00
2023-06-07T06:35:27.297Z,560.00
2023-06-07T06:36:27.272Z,673.00
2023-06-07T06:37:27.306Z,695.00
2023-06-07T06:38:27.364Z,697.00
2023-06-07T06:39:27.418Z,592.00
2023-06-07T06:40:27.561Z,577.00
2023-06-07T06:41:27.511Z,585.00
2023-06-07T06:42:26.564Z,625.00
2023-06-07T06:43:27.598Z,564.00
2023-06-07T06:44:27.635Z,562.00
2023-06-07T06:45:27.694Z,559.00
2023-06-07T06:46:27.724Z,559.00
2023-06-07T06:47:27.754Z,552.00
2023-06-07T06:48:27.785Z,744.00
2023-06-07T06:49:27.835Z,873.00
2023-06-07T06:50:33.028Z,592.00
2023-06-07T06:51:28.102Z,635.00
2023-06-07T06:52:27.884Z,489.00
2023-06-07T06:53:27.879Z,379.00
2023-06-07T06:54:27.861Z,512.00
2023-06-07T06:55:27.913Z,407.00
2023-06-07T06:56:28.578Z,482.00
2023-06-07T06:57:27.865Z,454.00
2023-06-07T06:58:27.839Z,499.00
2023-06-07T06:59:26.850Z,448.00
2023-06-07T07:00:27.829Z,480.00
2023-06-07T07:01:27.863Z,566.00
2023-06-07T07:02:26.910Z,474.00
2023-06-07T07:03:27.804Z,481.00
2023-06-07T07:04:27.882Z,416.00
2023-06-07T07:05:30.269Z,530.00
2023-06-07T07:06:27.782Z,453.00
2023-06-07T07:07:26.853Z,398.00
2023-06-07T07:08:27.756Z,434.00
2023-06-07T07:09:27.785Z,552.00
2023-06-07T07:10:26.751Z,452.00
2023-06-07T07:11:26.775Z,464.00
2023-06-07T07:12:27.741Z,431.00
2023-06-07T07:13:27.736Z,460.00
2023-06-07T07:14:26.759Z,489.00
2023-06-07T07:15:26.720Z,504.00
2023-06-07T07:16:26.745Z,454.00
2023-06-07T07:17:27.751Z,364.00
2023-06-07T07:18:27.702Z,438.00
2023-06-07T07:19:27.717Z,466.00
2023-06-07T07:20:26.697Z,456.00
2023-06-07T07:21:26.680Z,435.00
2023-06-07T07:22:29.000Z,456.00
2023-06-07T07:23:27.996Z,482.00
2023-06-07T07:24:27.787Z,530.00
2023-06-07T07:25:27.767Z,346.00
2023-06-07T07:26:26.780Z,462.00
2023-06-07T07:27:27.841Z,465.00
2023-06-07T07:28:27.795Z,462.00
2023-06-07T07:29:28.943Z,468.00
2023-06-07T07:30:26.783Z,447.00
2023-06-07T07:31:27.828Z,438.00
2023-06-07T07:32:27.896Z,454.00
2023-06-07T07:33:27.811Z,418.00
2023-06-07T07:34:26.885Z,421.00
2023-06-07T07:35:27.796Z,509.00
2023-06-07T07:36:27.802Z,436.00
2023-06-07T07:37:27.847Z,446.00
2023-06-07T07:38:27.832Z,418.00
2023-06-07T07:39:26.888Z,452.00
2023-06-07T07:40:26.864Z,406.00
2023-06-07T07:41:27.878Z,447.00
2023-06-07T07:42:27.852Z,436.00
2023-06-07T07:43:30.435Z,441.00
2023-06-07T07:44:27.082Z,436.00
2023-06-07T07:45:27.110Z,452.00
2023-06-07T07:46:28.625Z,473.00
2023-06-07T07:47:28.188Z,482.00
2023-06-07T07:48:28.158Z,469.00
2023-06-07T07:49:28.205Z,472.00
2023-06-07T07:50:28.214Z,522.00
2023-06-07T07:51:27.266Z,633.00
2023-06-07T07:52:28.591Z,569.00
2023-06-07T07:53:28.419Z,651.00
2023-06-07T07:54:28.398Z,618.00
2023-06-07T07:55:27.407Z,582.00
2023-06-07T07:56:28.421Z,590.00
2023-06-07T07:57:27.465Z,587.00
2023-06-07T07:58:27.521Z,574.00
2023-06-07T07:59:27.574Z,576.00
2023-06-07T08:00:28.601Z,605.00
2023-06-07T08:01:27.625Z,624.00
2023-06-07T08:02:27.735Z,625.00
2023-06-07T08:03:28.787Z,636.00
2023-06-07T08:04:27.676Z,662.00
2023-06-07T08:05:28.668Z,701.00
2023-06-07T08:06:27.752Z,716.00
2023-06-07T08:07:28.798Z,721.00
2023-06-07T08:08:28.836Z,719.00
2023-06-07T08:09:28.889Z,720.00
2023-06-07T08:10:28.998Z,718.00
2023-06-07T08:11:29.194Z,719.00
2023-06-07T08:12:29.079Z,732.00
2023-06-07T08:13:29.113Z,737.00
2023-06-07T08:14:28.159Z,736.00
2023-06-07T08:15:28.206Z,731.00
2023-06-07T08:16:29.278Z,778.00
2023-06-07T08:17:29.300Z,794.00
2023-06-07T08:18:29.298Z,777.00
2023-06-07T08:19:29.334Z,764.00
2023-06-07T08:20:29.378Z,758.00
2023-06-07T08:21:29.404Z,756.00
2023-06-07T08:22:29.416Z,761.00
2023-06-07T08:23:29.527Z,756.00
2023-06-07T08:24:29.482Z,761.00
2023-06-07T08:25:28.523Z,759.00
2023-06-07T08:26:29.550Z,751.00
2023-06-07T08:27:29.616Z,759.00
2023-06-07T08:28:29.627Z,768.00
2023-06-07T08:29:29.619Z,761.00
2023-06-07T08:30:29.649Z,757.00
2023-06-07T08:31:29.654Z,754.00
2023-06-07T08:32:28.695Z,750.00
2023-06-07T08:33:29.659Z,757.00
2023-06-07T08:34:31.850Z,752.00
2023-06-07T08:35:29.747Z,756.00
2023-06-07T08:36:29.792Z,787.00
2023-06-07T08:37:29.785Z,790.00
2023-06-07T08:38:28.766Z,794.00
2023-06-07T08:39:29.763Z,794.00
2023-06-07T08:40:29.753Z,722.00
2023-06-07T08:41:29.777Z,673.00
2023-06-07T08:42:30.124Z,671.00
2023-06-07T08:43:30.004Z,680.00
2023-06-07T08:44:29.615Z,755.00
2023-06-07T08:45:30.008Z,746.00
2023-06-07T08:46:29.014Z,754.00
2023-06-07T08:47:29.093Z,743.00
2023-06-07T08:48:29.058Z,738.00
2023-06-07T08:49:29.088Z,713.00
2023-06-07T08:50:30.120Z,477.00
2023-06-07T08:51:30.191Z,593.00
2023-06-07T08:52:30.234Z,547.00
2023-06-07T08:53:30.271Z,536.00
2023-06-07T08:54:30.322Z,542.00
2023-06-07T08:55:30.345Z,546.00
2023-06-07T08:56:30.506Z,549.00
2023-06-07T08:57:29.687Z,550.00
2023-06-07T08:58:30.510Z,551.00
2023-06-07T08:59:29.748Z,544.00
2023-06-07T09:00:29.563Z,539.00
2023-06-07T09:01:31.783Z,525.00
2023-06-07T09:02:29.646Z,520.00
2023-06-07T09:03:30.744Z,519.00
2023-06-07T09:04:30.612Z,520.00
2023-06-07T09:05:30.584Z,520.00
2023-06-07T09:06:30.576Z,516.00
2023-06-07T09:07:30.580Z,516.00
2023-06-07T09:08:30.581Z,559.00
2023-06-07T09:09:31.967Z,568.00
2023-06-07T09:10:30.554Z,570.00
2023-06-07T09:11:29.578Z,602.00
2023-06-07T09:12:30.569Z,609.00
2023-06-07T09:13:30.535Z,675.00
2023-06-07T09:14:30.520Z,598.00
2023-06-07T09:15:31.937Z,631.00
2023-06-07T09:16:29.657Z,632.00
2023-06-07T09:17:30.563Z,630.00
2023-06-07T09:18:30.545Z,615.00
2023-06-07T09:19:30.493Z,584.00
2023-06-07T09:20:30.490Z,582.00
2023-06-07T09:21:30.477Z,597.00
2023-06-07T09:22:30.512Z,592.00
2023-06-07T09:23:30.512Z,601.00
2023-06-07T09:24:30.473Z,709.00
2023-06-07T09:25:29.462Z,793.00
2023-06-07T09:26:30.461Z,620.00
2023-06-07T09:27:30.467Z,621.00
2023-06-07T09:28:29.418Z,731.00
2023-06-07T09:29:30.512Z,620.00
2023-06-07T09:30:30.414Z,581.00
2023-06-07T09:31:29.507Z,573.00
2023-06-07T09:32:32.723Z,572.00
2023-06-07T09:33:30.514Z,641.00
2023-06-07T09:34:30.395Z,617.00
2023-06-07T09:35:30.421Z,555.00
2023-06-07T09:36:29.440Z,528.00
2023-06-07T09:37:30.366Z,525.00
2023-06-07T09:38:30.375Z,517.00
2023-06-07T09:39:30.371Z,506.00
2023-06-07T09:40:29.353Z,503.00
2023-06-07T09:41:30.350Z,504.00
2023-06-07T09:42:30.357Z,495.00
2023-06-07T09:43:30.346Z,506.00
2023-06-07T09:44:29.314Z,495.00
2023-06-07T09:45:30.365Z,488.00
2023-06-07T09:46:30.354Z,483.00
2023-06-07T09:47:30.878Z,479.00
2023-06-07T09:48:30.390Z,480.00
2023-06-07T09:49:29.377Z,475.00
2023-06-07T09:50:29.273Z,505.00
2023-06-07T09:51:29.291Z,524.00
2023-06-07T09:52:31.080Z,829.00
2023-06-07T09:53:29.249Z,813.00
2023-06-07T09:54:29.265Z,916.00
2023-06-07T09:55:29.270Z,794.00
2023-06-07T09:56:29.397Z,609.00
2023-06-07T09:57:30.340Z,649.00
2023-06-07T09:58:29.342Z,683.00
2023-06-07T09:59:30.363Z,960.00
2023-06-07T10:00:30.433Z,812.00
2023-06-07T10:01:29.545Z,836.00
2023-06-07T10:02:30.721Z,750.00
2023-06-07T10:03:30.783Z,639.00
2023-06-07T10:04:29.773Z,676.00
2023-06-07T10:05:30.780Z,736.00
2023-06-07T10:06:29.802Z,618.00
2023-06-07T10:07:29.864Z,608.00
2023-06-07T10:08:30.908Z,668.00
2023-06-07T10:09:30.936Z,576.00
2023-06-07T10:10:30.930Z,578.00
2023-06-07T10:11:29.946Z,525.00
2023-06-07T10:12:31.078Z,590.00
2023-06-07T10:13:31.021Z,562.00
2023-06-07T10:14:31.035Z,614.00
2023-06-07T10:15:31.089Z,509.00
2023-06-07T10:16:30.087Z,517.00
2023-06-07T10:17:31.086Z,601.00
2023-06-07T10:18:31.144Z,446.00
2023-06-07T10:19:30.119Z,533.00
2023-06-07T10:20:31.101Z,525.00
2023-06-07T10:21:31.154Z,536.00
2023-06-07T10:22:31.138Z,485.00
2023-06-07T10:23:30.326Z,568.00
2023-06-07T10:24:31.205Z,525.00
2023-06-07T10:25:31.149Z,565.00
2023-06-07T10:26:31.155Z,542.00
2023-06-07T10:27:31.228Z,566.00
2023-06-07T10:28:31.243Z,706.00
2023-06-07T10:29:30.316Z,519.00
2023-06-07T10:30:30.340Z,579.00
2023-06-07T10:31:31.404Z,596.00
2023-06-07T10:32:30.500Z,693.00
2023-06-07T10:33:31.433Z,618.00
2023-06-07T10:34:31.454Z,585.00
2023-06-07T10:35:31.554Z,576.00
2023-06-07T10:36:30.468Z,584.00
2023-06-07T10:37:31.428Z,736.00
2023-06-07T10:38:31.466Z,567.00
2023-06-07T10:39:30.468Z,591.00
2023-06-07T10:40:31.522Z,796.00
2023-06-07T10:41:30.567Z,563.00
2023-06-07T10:42:30.605Z,684.00
2023-06-07T10:43:31.645Z,582.00
2023-06-07T10:44:30.675Z,571.00
2023-06-07T10:45:31.668Z,577.00
2023-06-07T10:46:30.861Z,572.00
2023-06-07T10:47:31.804Z,569.00
2023-06-07T10:48:31.760Z,570.00
2023-06-07T10:49:30.733Z,566.00
2023-06-07T10:50:31.725Z,569.00
2023-06-07T10:51:31.872Z,574.00
2023-06-07T10:52:30.750Z,576.00
2023-06-07T10:53:31.736Z,579.00
2023-06-07T10:54:30.780Z,579.00
2023-06-07T10:55:31.727Z,578.00
2023-06-07T10:56:31.777Z,578.00
2023-06-07T10:57:31.733Z,577.00
2023-06-07T10:58:31.786Z,577.00
2023-06-07T10:59:31.733Z,580.00
2023-06-07T11:00:30.866Z,581.00
2023-06-07T11:01:30.792Z,579.00
2023-06-07T11:02:32.045Z,578.00
2023-06-07T11:03:32.065Z,577.00
2023-06-07T11:04:30.908Z,578.00
2023-06-07T11:05:33.846Z,582.00
2023-06-07T11:06:31.759Z,583.00
2023-06-07T11:07:30.829Z,582.00
2023-06-07T11:08:30.740Z,580.00
2023-06-07T11:09:31.709Z,575.00
2023-06-07T11:10:31.794Z,575.00
2023-06-07T11:11:30.715Z,572.00
2023-06-07T11:12:30.730Z,575.00
2023-06-07T11:13:31.706Z,575.00
2023-06-07T11:14:30.757Z,574.00
2023-06-07T11:15:30.710Z,573.00
2023-06-07T11:16:31.698Z,577.00
2023-06-07T11:17:31.685Z,575.00
2023-06-07T11:18:30.689Z,566.00
2023-06-07T11:19:31.700Z,569.00
2023-06-07T11:20:31.723Z,569.00
2023-06-07T11:21:31.666Z,570.00
2023-06-07T11:22:30.629Z,572.00
2023-06-07T11:23:30.802Z,568.00
2023-06-07T11:24:31.741Z,566.00
2023-06-07T11:25:31.622Z,565.00
2023-06-07T11:26:31.620Z,566.00
2023-06-07T11:27:31.605Z,568.00
2023-06-07T11:28:30.657Z,563.00
2023-06-07T11:29:31.578Z,565.00
2023-06-07T11:30:30.568Z,565.00
2023-06-07T11:31:31.590Z,568.00
2023-06-07T11:32:32.368Z,564.00
2023-06-07T11:33:31.706Z,560.00
2023-06-07T11:34:31.576Z,562.00
2023-06-07T11:35:30.539Z,564.00
2023-06-07T11:36:30.548Z,562.00
2023-06-07T11:37:31.521Z,559.00
2023-06-07T11:38:31.525Z,559.00
2023-06-07T11:39:31.577Z,558.00
2023-06-07T11:40:30.504Z,553.00
2023-06-07T11:41:31.510Z,552.00
2023-06-07T11:42:30.486Z,556.00
2023-06-07T11:43:31.491Z,556.00
2023-06-07T11:44:31.472Z,558.00
2023-06-07T11:45:31.525Z,556.00
2023-06-07T11:46:30.499Z,557.00
2023-06-07T11:47:31.564Z,556.00
2023-06-07T11:48:31.770Z,557.00
2023-06-07T11:49:31.442Z,555.00
2023-06-07T11:50:31.420Z,552.00
2023-06-07T11:51:31.422Z,553.00
2023-06-07T11:52:31.440Z,555.00
2023-06-07T11:53:31.413Z,555.00
2023-06-07T11:54:31.389Z,554.00
2023-06-07T11:55:31.425Z,550.00
2023-06-07T11:56:31.414Z,550.00
2023-06-07T11:57:31.407Z,551.00
2023-06-07T11:58:31.479Z,551.00
2023-06-07T11:59:31.435Z,549.00
2023-06-07T12:00:30.569Z,548.00
2023-06-07T12:01:30.515Z,549.00
2023-06-07T12:02:30.576Z,549.00
2023-06-07T12:03:31.697Z,552.00
2023-06-07T12:04:30.700Z,550.00
2023-06-07T12:05:31.766Z,548.00
2023-06-07T12:06:30.832Z,546.00
2023-06-07T12:07:31.871Z,547.00
2023-06-07T12:08:31.856Z,548.00
2023-06-07T12:09:30.913Z,548.00
2023-06-07T12:10:30.980Z,549.00
2023-06-07T12:11:32.134Z,550.00
2023-06-07T12:12:32.082Z,547.00
2023-06-07T12:13:31.135Z,548.00
2023-06-07T12:14:32.181Z,550.00
2023-06-07T12:15:31.293Z,548.00
2023-06-07T12:16:31.406Z,550.00
2023-06-07T12:17:32.459Z,547.00
2023-06-07T12:18:32.457Z,548.00
2023-06-07T12:19:32.480Z,547.00
2023-06-07T12:20:31.544Z,549.00
2023-06-07T12:21:32.601Z,548.00
2023-06-07T12:22:31.676Z,545.00
2023-06-07T12:23:32.823Z,545.00
2023-06-07T12:24:32.772Z,544.00
2023-06-07T12:25:31.892Z,546.00
2023-06-07T12:26:32.915Z,544.00
2023-06-07T12:27:33.025Z,545.00
2023-06-07T12:28:33.052Z,546.00
2023-06-07T12:29:33.106Z,545.00
2023-06-07T12:30:33.049Z,543.00
2023-06-07T12:31:33.259Z,540.00
2023-06-07T12:32:32.316Z,535.00
2023-06-07T12:33:33.367Z,540.00
2023-06-07T12:34:32.404Z,542.00
2023-06-07T12:35:33.487Z,544.00
2023-06-07T12:36:32.526Z,549.00
2023-06-07T12:37:33.603Z,548.00
2023-06-07T12:38:33.651Z,547.00
2023-06-07T12:39:32.751Z,550.00
2023-06-07T12:40:32.816Z,551.00
2023-06-07T12:41:34.283Z,550.00
2023-06-07T12:42:32.924Z,550.00
2023-06-07T12:43:33.045Z,553.00
2023-06-07T12:44:34.043Z,550.00
2023-06-07T12:45:34.097Z,551.00
2023-06-07T12:46:34.205Z,546.00
2023-06-07T12:47:33.230Z,543.00
2023-06-07T12:48:33.258Z,542.00
2023-06-07T12:49:34.369Z,541.00
2023-06-07T12:50:34.372Z,543.00
2023-06-07T12:51:33.423Z,545.00
2023-06-07T12:52:34.486Z,546.00
2023-06-07T12:53:34.532Z,546.00
2023-06-07T12:54:34.569Z,545.00
2023-06-07T12:55:33.634Z,544.00
2023-06-07T12:56:33.691Z,546.00
2023-06-07T12:57:33.715Z,546.00
2023-06-07T12:58:34.777Z,547.00
2023-06-07T12:59:34.901Z,543.00
2023-06-07T13:00:34.848Z,542.00
2023-06-07T13:01:34.993Z,544.00
2023-06-07T13:02:35.015Z,545.00
2023-06-07T13:03:34.107Z,544.00
2023-06-07T13:04:35.079Z,545.00
2023-06-07T13:05:34.105Z,546.00
2023-06-07T13:06:35.142Z,544.00
2023-06-07T13:07:35.195Z,542.00
2023-06-07T13:08:35.208Z,539.00
2023-06-07T13:09:35.414Z,537.00
2023-06-07T13:10:34.273Z,539.00
2023-06-07T13:11:35.303Z,543.00
2023-06-07T13:12:34.336Z,576.00
2023-06-07T13:13:35.396Z,553.00
2023-06-07T13:14:35.485Z,561.00
2023-06-07T13:15:34.625Z,546.00
2023-06-07T13:16:34.609Z,545.00
2023-06-07T13:17:35.953Z,543.00
2023-06-07T13:18:35.665Z,539.00
2023-06-07T13:19:34.660Z,538.00
2023-06-07T13:20:35.712Z,529.00
2023-06-07T13:21:34.758Z,529.00
2023-06-07T13:22:35.815Z,531.00
2023-06-07T13:23:35.919Z,530.00
2023-06-07T13:24:35.888Z,527.00
2023-06-07T13:25:35.959Z,531.00
2023-06-07T13:26:35.964Z,537.00
2023-06-07T13:27:35.002Z,536.00
2023-06-07T13:28:36.039Z,531.00
2023-06-07T13:29:35.120Z,534.00
2023-06-07T13:30:36.127Z,536.00
2023-06-07T13:31:36.218Z,536.00
2023-06-07T13:32:35.332Z,536.00
2023-06-07T13:33:35.222Z,534.00
2023-06-07T13:34:35.263Z,536.00
2023-06-07T13:35:37.940Z,535.00
2023-06-07T13:36:35.287Z,535.00
2023-06-07T13:37:35.264Z,536.00
2023-06-07T13:38:36.265Z,538.00
2023-06-07T13:39:36.245Z,536.00
2023-06-07T13:40:36.252Z,539.00
2023-06-07T13:41:36.241Z,537.00
2023-06-07T13:42:36.240Z,536.00
2023-06-07T13:43:51.304Z,535.00
2023-06-07T13:44:36.225Z,539.00
2023-06-07T13:45:36.234Z,539.00
2023-06-07T13:46:35.274Z,540.00
2023-06-07T13:47:35.291Z,539.00
2023-06-07T13:48:35.213Z,540.00
2023-06-07T13:49:36.193Z,539.00
2023-06-07T13:50:36.156Z,540.00
2023-06-07T13:51:35.214Z,542.00
2023-06-07T13:52:36.169Z,541.00
2023-06-07T13:53:35.200Z,540.00
2023-06-07T13:54:36.227Z,541.00
2023-06-07T13:55:36.124Z,542.00
2023-06-07T13:56:36.139Z,546.00
2023-06-07T13:57:35.114Z,543.00
2023-06-07T13:58:35.150Z,541.00
2023-06-07T13:59:36.180Z,541.00
2023-06-07T14:00:35.216Z,540.00
2023-06-07T14:01:35.353Z,540.00
2023-06-07T14:02:36.507Z,539.00
2023-06-07T14:03:36.484Z,538.00
2023-06-07T14:04:36.402Z,539.00
2023-06-07T14:05:36.579Z,539.00
2023-06-07T14:06:35.356Z,539.00
2023-06-07T14:07:35.441Z,539.00
2023-06-07T14:08:35.418Z,541.00
2023-06-07T14:09:36.544Z,537.00
2023-06-07T14:10:35.591Z,535.00
2023-06-07T14:11:36.521Z,536.00
2023-06-07T14:12:35.520Z,533.00
2023-06-07T14:13:36.556Z,532.00
2023-06-07T14:14:36.602Z,530.00
2023-06-07T14:15:35.614Z,530.00
2023-06-07T14:16:36.700Z,527.00
2023-06-07T14:17:35.694Z,531.00
2023-06-07T14:18:35.683Z,534.00
2023-06-07T14:19:35.755Z,533.00
2023-06-07T14:20:35.754Z,534.00
2023-06-07T14:21:36.799Z,534.00
2023-06-07T14:22:36.788Z,535.00
2023-06-07T14:23:36.811Z,536.00
2023-06-07T14:24:35.843Z,535.00
2023-06-07T14:25:35.869Z,534.00
2023-06-07T14:26:36.891Z,533.00
2023-06-07T14:27:36.888Z,534.00
2023-06-07T14:28:35.953Z,534.00
2023-06-07T14:29:36.929Z,534.00
2023-06-07T14:30:36.946Z,532.00
2023-06-07T14:31:37.034Z,530.00
2023-06-07T14:32:36.988Z,532.00
2023-06-07T14:33:36.967Z,533.00
2023-06-07T14:34:36.983Z,532.00
2023-06-07T14:35:37.018Z,534.00
2023-06-07T14:36:37.783Z,531.00
2023-06-07T14:37:36.999Z,529.00
2023-06-07T14:38:37.045Z,530.00
2023-06-07T14:39:37.032Z,531.00
2023-06-07T14:40:36.990Z,531.00
2023-06-07T14:41:36.969Z,532.00
2023-06-07T14:42:37.112Z,531.00
2023-06-07T14:43:35.966Z,529.00
2023-06-07T14:44:35.965Z,532.00
2023-06-07T14:45:36.017Z,533.00
2023-06-07T14:46:35.940Z,532.00
2023-06-07T14:47:35.944Z,534.00
2023-06-07T14:48:36.941Z,533.00
2023-06-07T14:49:35.914Z,534.00
2023-06-07T14:50:35.924Z,534.00
2023-06-07T14:51:35.934Z,531.00
2023-06-07T14:52:36.895Z,529.00
2023-06-07T14:53:36.915Z,529.00
2023-06-07T14:54:36.901Z,529.00
2023-06-07T14:55:35.888Z,531.00
2023-06-07T14:56:35.869Z,530.00
2023-06-07T14:57:35.861Z,532.00
2023-06-07T14:58:35.851Z,531.00
2023-06-07T14:59:37.089Z,532.00
2023-06-07T15:00:35.864Z,531.00
2023-06-07T15:01:35.869Z,533.00
2023-06-07T15:02:35.848Z,531.00
2023-06-07T15:03:35.907Z,531.00
2023-06-07T15:04:35.831Z,530.00
2023-06-07T15:05:36.804Z,529.00
2023-06-07T15:06:35.785Z,527.00
2023-06-07T15:07:35.828Z,525.00
2023-06-07T15:08:35.810Z,524.00
2023-06-07T15:09:35.809Z,525.00
2023-06-07T15:10:35.800Z,524.00
2023-06-07T15:11:36.816Z,524.00
2023-06-07T15:12:35.761Z,525.00
2023-06-07T15:13:36.767Z,526.00
2023-06-07T15:14:35.746Z,528.00
2023-06-07T15:15:36.761Z,529.00
2023-06-07T15:16:36.841Z,530.00
2023-06-07T15:17:36.756Z,529.00
2023-06-07T15:18:35.723Z,526.00
2023-06-07T15:19:36.711Z,524.00
2023-06-07T15:20:35.688Z,524.00
2023-06-07T15:21:35.734Z,524.00
2023-06-07T15:22:36.710Z,524.00
2023-06-07T15:23:35.731Z,524.00
2023-06-07T15:24:35.684Z,525.00
2023-06-07T15:25:35.679Z,525.00
2023-06-07T15:26:36.656Z,524.00
2023-06-07T15:27:35.637Z,527.00
2023-06-07T15:28:36.648Z,530.00
2023-06-07T15:29:36.665Z,531.00
2023-06-07T15:30:35.629Z,527.00
2023-06-07T15:31:36.645Z,530.00
2023-06-07T15:32:35.676Z,530.00
2023-06-07T15:33:35.600Z,531.00
2023-06-07T15:34:36.589Z,528.00
2023-06-07T15:35:36.601Z,529.00
2023-06-07T15:36:36.605Z,528.00
2023-06-07T15:37:35.574Z,528.00
2023-06-07T15:38:35.562Z,527.00
2023-06-07T15:39:36.602Z,524.00
2023-06-07T15:40:35.561Z,521.00
2023-06-07T15:41:36.564Z,522.00
2023-06-07T15:42:36.542Z,523.00
2023-06-07T15:43:36.561Z,521.00
2023-06-07T15:44:36.530Z,522.00
2023-06-07T15:45:36.545Z,523.00
2023-06-07T15:46:38.261Z,525.00
2023-06-07T15:47:35.579Z,526.00
2023-06-07T15:48:36.513Z,525.00
2023-06-07T15:49:36.494Z,523.00
2023-06-07T15:50:35.502Z,522.00
2023-06-07T15:51:35.480Z,522.00
2023-06-07T15:52:36.486Z,521.00
2023-06-07T15:53:36.475Z,520.00
2023-06-07T15:54:35.487Z,520.00
2023-06-07T15:55:35.552Z,520.00
2023-06-07T15:56:36.445Z,521.00
2023-06-07T15:57:35.435Z,521.00
2023-06-07T15:58:35.442Z,523.00
2023-06-07T15:59:36.428Z,521.00
2023-06-07T16:00:38.861Z,522.00
2023-06-07T16:01:36.480Z,522.00
2023-06-07T16:02:36.415Z,521.00
2023-06-07T16:03:50.670Z,523.00
2023-06-07T16:04:36.494Z,523.00
2023-06-07T16:05:36.384Z,522.00
2023-06-07T16:06:36.374Z,521.00
2023-06-07T16:07:36.387Z,522.00
2023-06-07T16:08:35.344Z,526.00
2023-06-07T16:09:35.343Z,525.00
2023-06-07T16:10:36.325Z,523.00
2023-06-07T16:11:35.359Z,522.00
2023-06-07T16:12:36.315Z,519.00
2023-06-07T16:13:36.318Z,518.00
2023-06-07T16:14:36.330Z,517.00
2023-06-07T16:15:35.285Z,518.00
2023-06-07T16:16:36.398Z,517.00
2023-06-07T16:17:36.350Z,517.00
2023-06-07T16:18:35.293Z,518.00
2023-06-07T16:19:35.288Z,519.00
2023-06-07T16:20:36.258Z,520.00
2023-06-07T16:21:35.256Z,522.00
2023-06-07T16:22:35.259Z,525.00
2023-06-07T16:23:35.282Z,524.00
2023-06-07T16:24:35.271Z,522.00
2023-06-07T16:25:36.385Z,523.00
2023-06-07T16:26:35.235Z,522.00
2023-06-07T16:27:35.234Z,521.00
2023-06-07T16:28:35.199Z,519.00
2023-06-07T16:29:35.213Z,517.00
2023-06-07T16:30:37.955Z,515.00
2023-06-07T16:31:36.314Z,516.00
2023-06-07T16:32:36.209Z,516.00
2023-06-07T16:33:36.171Z,514.00
2023-06-07T16:34:36.163Z,514.00
2023-06-07T16:35:36.163Z,513.00
2023-06-07T16:36:35.160Z,516.00
2023-06-07T16:37:35.152Z,514.00
2023-06-07T16:38:36.143Z,517.00
2023-06-07T16:39:35.148Z,517.00
2023-06-07T16:40:35.122Z,515.00
2023-06-07T16:42:35.136Z,514.00
2023-06-07T16:43:35.145Z,515.00
2023-06-07T16:44:35.181Z,514.00
2023-06-07T16:45:36.089Z,513.00
2023-06-07T16:46:36.126Z,512.00
2023-06-07T16:47:35.122Z,511.00
2023-06-07T16:48:36.073Z,511.00
2023-06-07T16:49:35.113Z,513.00
2023-06-07T16:50:36.047Z,516.00
2023-06-07T16:51:35.043Z,522.00
2023-06-07T16:52:35.027Z,513.00
2023-06-07T16:53:36.049Z,510.00
2023-06-07T16:54:35.039Z,509.00
2023-06-07T16:55:35.366Z,512.00
2023-06-07T16:56:36.006Z,517.00
2023-06-07T16:57:38.850Z,518.00
2023-06-07T16:58:34.996Z,519.00
2023-06-07T16:59:35.018Z,517.00
2023-06-07T17:00:35.987Z,517.00
2023-06-07T17:01:36.049Z,518.00
2023-06-07T17:02:35.163Z,517.00
2023-06-07T17:03:36.077Z,520.00
2023-06-07T17:04:34.954Z,519.00
2023-06-07T17:05:34.987Z,519.00
2023-06-07T17:06:34.948Z,520.00
2023-06-07T17:07:34.931Z,522.00
2023-06-07T17:08:34.950Z,520.00
2023-06-07T17:09:35.918Z,518.00
2023-06-07T17:10:35.919Z,518.00
2023-06-07T17:11:35.894Z,518.00
2023-06-07T17:12:35.903Z,516.00
2023-06-07T17:13:34.888Z,517.00
2023-06-07T17:14:35.895Z,517.00
2023-06-07T17:15:35.904Z,518.00
2023-06-07T17:16:35.947Z,520.00
2023-06-07T17:17:36.026Z,518.00
2023-06-07T17:18:34.862Z,517.00
2023-06-07T17:19:34.856Z,516.00
2023-06-07T17:20:34.870Z,517.00
2023-06-07T17:21:35.861Z,516.00
2023-06-07T17:22:34.818Z,516.00
2023-06-07T17:23:35.861Z,517.00
2023-06-07T17:24:35.903Z,517.00
2023-06-07T17:25:34.848Z,519.00
2023-06-07T17:26:35.881Z,519.00
2023-06-07T17:27:34.902Z,519.00
2023-06-07T17:28:35.916Z,520.00
2023-06-07T17:29:34.948Z,519.00
2023-06-07T17:30:34.944Z,518.00
2023-06-07T17:31:36.032Z,516.00
2023-06-07T17:32:36.096Z,516.00
2023-06-07T17:33:35.003Z,519.00
2023-06-07T17:34:36.028Z,521.00
2023-06-07T17:35:35.020Z,518.00
2023-06-07T17:36:35.031Z,517.00
2023-06-07T17:37:36.059Z,515.00
2023-06-07T17:38:36.074Z,516.00
2023-06-07T17:39:35.116Z,518.00
2023-06-07T17:40:36.103Z,520.00
2023-06-07T17:41:36.115Z,519.00
2023-06-07T17:42:35.159Z,517.00
2023-06-07T17:43:36.172Z,517.00
2023-06-07T17:44:36.218Z,518.00
2023-06-07T17:45:35.232Z,520.00
2023-06-07T17:46:35.345Z,516.00
2023-06-07T17:47:36.296Z,514.00
2023-06-07T17:48:36.266Z,514.00
2023-06-07T17:49:36.283Z,514.00
2023-06-07T17:51:36.299Z,516.00
2023-06-07T17:52:35.306Z,516.00
2023-06-07T17:53:35.300Z,518.00
2023-06-07T17:54:35.295Z,519.00
2023-06-07T17:55:35.293Z,517.00
2023-06-07T17:56:36.288Z,520.00
2023-06-07T17:57:35.270Z,520.00
2023-06-07T17:58:36.278Z,519.00
2023-06-07T17:59:36.304Z,521.00
2023-06-07T18:00:35.225Z,521.00
2023-06-07T18:01:36.265Z,519.00